sensor_id;sensor_type;location;lat;lon;timestamp;temperature;humidity
9723;DHT22;4900;49.306;8.500;2023-02-13T00:00:06;2.48;78.34
9723;DHT22;4900;49.306;8.500;2023-02-13T00:03:10;2.49;78.35
9723;DHT22;4900;49.306;8.500;2023-02-13T00:06:12;2.46;78.19
9723;DHT22;4900;49.306;8.500;2023-02-13T00:09:15;2.45;78.13
9723;DHT22;4900;49.306;8.500;2023-02-13T00:12:19;2.41;77.99
9723;DHT22;4900;49.306;8.500;2023-02-13T00:15:22;2.38;77.98
9723;DHT22;4900;49.306;8.500;2023-02-13T00:18:26;2.35;78.46
9723;DHT22;4900;49.306;8.500;2023-02-13T00:21:28;2.32;78.70
9723;DHT22;4900;49.306;8.500;2023-02-13T00:24:31;2.30;78.37
9723;DHT22;4900;49.306;8.500;2023-02-13T00:27:34;2.31;78.22
9723;DHT22;4900;49.306;8.500;2023-02-13T00:30:37;2.31;78.29
9723;DHT22;4900;49.306;8.500;2023-02-13T00:33:40;2.28;78.68
9723;DHT22;4900;49.306;8.500;2023-02-13T00:36:44;2.27;78.76
9723;DHT22;4900;49.306;8.500;2023-02-13T00:39:47;2.27;78.45
9723;DHT22;4900;49.306;8.500;2023-02-13T00:42:49;2.22;78.66
9723;DHT22;4900;49.306;8.500;2023-02-13T00:45:52;2.22;78.45
9723;DHT22;4900;49.306;8.500;2023-02-13T00:48:56;2.21;78.60
9723;DHT22;4900;49.306;8.500;2023-02-13T00:51:58;2.17;78.36
9723;DHT22;4900;49.306;8.500;2023-02-13T00:55:01;2.14;78.10
9723;DHT22;4900;49.306;8.500;2023-02-13T00:58:04;2.11;77.80
9723;DHT22;4900;49.306;8.500;2023-02-13T01:01:07;2.07;77.59
9723;DHT22;4900;49.306;8.500;2023-02-13T01:04:10;2.01;77.36
9723;DHT22;4900;49.306;8.500;2023-02-13T01:07:13;1.97;77.16
9723;DHT22;4900;49.306;8.500;2023-02-13T01:10:16;1.91;77.06
9723;DHT22;4900;49.306;8.500;2023-02-13T01:13:19;1.86;76.94
9723;DHT22;4900;49.306;8.500;2023-02-13T01:16:22;1.82;76.96
9723;DHT22;4900;49.306;8.500;2023-02-13T01:19:25;1.79;76.81
9723;DHT22;4900;49.306;8.500;2023-02-13T01:22:28;1.72;76.88
9723;DHT22;4900;49.306;8.500;2023-02-13T01:25:31;1.65;76.81
9723;DHT22;4900;49.306;8.500;2023-02-13T01:28:34;1.63;76.84
9723;DHT22;4900;49.306;8.500;2023-02-13T01:31:37;1.62;76.82
9723;DHT22;4900;49.306;8.500;2023-02-13T01:34:40;1.55;76.65
9723;DHT22;4900;49.306;8.500;2023-02-13T01:37:43;1.51;76.63
9723;DHT22;4900;49.306;8.500;2023-02-13T01:40:51;1.47;76.59
9723;DHT22;4900;49.306;8.500;2023-02-13T01:43:59;1.44;76.46
9723;DHT22;4900;49.306;8.500;2023-02-13T01:47:03;1.40;76.59
9723;DHT22;4900;49.306;8.500;2023-02-13T01:50:14;1.37;76.80
9723;DHT22;4900;49.306;8.500;2023-02-13T01:53:29;1.33;76.99
9723;DHT22;4900;49.306;8.500;2023-02-13T01:56:54;1.26;77.19
9723;DHT22;4900;49.306;8.500;2023-02-13T02:00:04;1.21;77.18
9723;DHT22;4900;49.306;8.500;2023-02-13T02:06:42;1.11;77.05
9723;DHT22;4900;49.306;8.500;2023-02-13T02:09:46;1.08;76.99
9723;DHT22;4900;49.306;8.500;2023-02-13T02:16:08;1.08;76.95
9723;DHT22;4900;49.306;8.500;2023-02-13T02:33:17;0.96;77.17
9723;DHT22;4900;49.306;8.500;2023-02-13T02:36:38;0.92;77.25
9723;DHT22;4900;49.306;8.500;2023-02-13T02:39:54;0.93;77.25
9723;DHT22;4900;49.306;8.500;2023-02-13T02:43:18;0.92;77.25
9723;DHT22;4900;49.306;8.500;2023-02-13T02:46:37;0.90;77.12
9723;DHT22;4900;49.306;8.500;2023-02-13T02:49:41;0.86;76.87
9723;DHT22;4900;49.306;8.500;2023-02-13T02:56:39;0.76;77.33
9723;DHT22;4900;49.306;8.500;2023-02-13T02:59:45;0.76;77.31
9723;DHT22;4900;49.306;8.500;2023-02-13T03:03:14;0.75;77.25
9723;DHT22;4900;49.306;8.500;2023-02-13T03:06:47;0.73;77.16
9723;DHT22;4900;49.306;8.500;2023-02-13T03:09:55;0.75;77.12
9723;DHT22;4900;49.306;8.500;2023-02-13T03:13:37;0.72;77.23
9723;DHT22;4900;49.306;8.500;2023-02-13T03:16:41;0.70;77.23
9723;DHT22;4900;49.306;8.500;2023-02-13T03:20:14;0.70;77.39
9723;DHT22;4900;49.306;8.500;2023-02-13T03:23:56;0.75;77.72
9723;DHT22;4900;49.306;8.500;2023-02-13T03:30:21;0.75;77.63
9723;DHT22;4900;49.306;8.500;2023-02-13T03:37:00;0.69;77.67
9723;DHT22;4900;49.306;8.500;2023-02-13T03:40:29;0.64;77.69
9723;DHT22;4900;49.306;8.500;2023-02-13T03:46:59;0.59;77.59
9723;DHT22;4900;49.306;8.500;2023-02-13T03:50:04;0.59;77.63
9723;DHT22;4900;49.306;8.500;2023-02-13T03:53:10;0.58;77.71
9723;DHT22;4900;49.306;8.500;2023-02-13T03:56:17;0.59;77.76
9723;DHT22;4900;49.306;8.500;2023-02-13T03:59:40;0.61;77.83
9723;DHT22;4900;49.306;8.500;2023-02-13T04:03:09;0.61;78.07
9723;DHT22;4900;49.306;8.500;2023-02-13T04:06:27;0.61;77.99
9723;DHT22;4900;49.306;8.500;2023-02-13T04:09:34;0.62;77.88
9723;DHT22;4900;49.306;8.500;2023-02-13T04:16:29;0.58;78.06
9723;DHT22;4900;49.306;8.500;2023-02-13T04:19:34;0.55;77.79
9723;DHT22;4900;49.306;8.500;2023-02-13T04:22:47;0.52;77.79
9723;DHT22;4900;49.306;8.500;2023-02-13T04:25:53;0.50;77.68
9723;DHT22;4900;49.306;8.500;2023-02-13T04:28:57;0.47;77.77
9723;DHT22;4900;49.306;8.500;2023-02-13T04:32:00;0.45;77.82
9723;DHT22;4900;49.306;8.500;2023-02-13T04:35:03;0.45;77.78
9723;DHT22;4900;49.306;8.500;2023-02-13T04:38:06;0.45;77.86
9723;DHT22;4900;49.306;8.500;2023-02-13T04:41:10;0.47;77.73
9723;DHT22;4900;49.306;8.500;2023-02-13T04:44:13;0.45;77.56
9723;DHT22;4900;49.306;8.500;2023-02-13T04:47:16;0.42;77.45
9723;DHT22;4900;49.306;8.500;2023-02-13T04:50:20;0.40;77.35
9723;DHT22;4900;49.306;8.500;2023-02-13T04:53:23;0.40;77.23
9723;DHT22;4900;49.306;8.500;2023-02-13T04:56:26;0.34;77.14
9723;DHT22;4900;49.306;8.500;2023-02-13T04:59:29;0.31;77.05
9723;DHT22;4900;49.306;8.500;2023-02-13T05:02:32;0.30;77.00
9723;DHT22;4900;49.306;8.500;2023-02-13T05:05:35;0.23;76.94
9723;DHT22;4900;49.306;8.500;2023-02-13T05:08:38;0.17;76.91
9723;DHT22;4900;49.306;8.500;2023-02-13T05:11:42;0.13;77.00
9723;DHT22;4900;49.306;8.500;2023-02-13T05:14:45;0.07;77.01
9723;DHT22;4900;49.306;8.500;2023-02-13T05:17:48;0.07;76.90
9723;DHT22;4900;49.306;8.500;2023-02-13T05:20:52;0.02;76.82
9723;DHT22;4900;49.306;8.500;2023-02-13T05:24:13;-0.05;76.75
9723;DHT22;4900;49.306;8.500;2023-02-13T05:27:16;-0.07;76.77
9723;DHT22;4900;49.306;8.500;2023-02-13T05:30:19;-0.11;76.76
9723;DHT22;4900;49.306;8.500;2023-02-13T05:33:23;-0.14;76.73
9723;DHT22;4900;49.306;8.500;2023-02-13T05:36:26;-0.17;76.83
9723;DHT22;4900;49.306;8.500;2023-02-13T05:39:29;-0.21;76.92
9723;DHT22;4900;49.306;8.500;2023-02-13T05:42:32;-0.25;76.93
9723;DHT22;4900;49.306;8.500;2023-02-13T05:45:35;-0.26;76.89
9723;DHT22;4900;49.306;8.500;2023-02-13T05:48:38;-0.28;76.87
9723;DHT22;4900;49.306;8.500;2023-02-13T05:51:41;-0.29;76.74
9723;DHT22;4900;49.306;8.500;2023-02-13T05:54:44;-0.31;76.75
9723;DHT22;4900;49.306;8.500;2023-02-13T05:57:47;-0.35;76.68
9723;DHT22;4900;49.306;8.500;2023-02-13T06:00:55;-0.33;76.72
9723;DHT22;4900;49.306;8.500;2023-02-13T06:03:58;-0.35;76.80
9723;DHT22;4900;49.306;8.500;2023-02-13T06:07:01;-0.35;76.90
9723;DHT22;4900;49.306;8.500;2023-02-13T06:10:05;-0.29;77.54
9723;DHT22;4900;49.306;8.500;2023-02-13T06:13:08;-0.23;78.13
9723;DHT22;4900;49.306;8.500;2023-02-13T06:16:11;-0.11;79.23
9723;DHT22;4900;49.306;8.500;2023-02-13T06:19:14;-0.04;79.76
9723;DHT22;4900;49.306;8.500;2023-02-13T06:22:17;0.09;80.25
9723;DHT22;4900;49.306;8.500;2023-02-13T06:25:20;0.19;80.82
9723;DHT22;4900;49.306;8.500;2023-02-13T06:28:24;0.27;81.08
9723;DHT22;4900;49.306;8.500;2023-02-13T06:31:27;0.36;81.00
9723;DHT22;4900;49.306;8.500;2023-02-13T06:34:30;0.41;81.08
9723;DHT22;4900;49.306;8.500;2023-02-13T06:37:33;0.48;81.40
9723;DHT22;4900;49.306;8.500;2023-02-13T06:40:36;0.58;81.53
9723;DHT22;4900;49.306;8.500;2023-02-13T06:43:39;0.66;82.13
9723;DHT22;4900;49.306;8.500;2023-02-13T06:46:41;0.72;82.32
9723;DHT22;4900;49.306;8.500;2023-02-13T06:49:44;0.79;82.62
9723;DHT22;4900;49.306;8.500;2023-02-13T06:52:48;0.92;82.87
9723;DHT22;4900;49.306;8.500;2023-02-13T06:55:53;0.96;83.13
9723;DHT22;4900;49.306;8.500;2023-02-13T06:58:57;1.06;83.04
9723;DHT22;4900;49.306;8.500;2023-02-13T07:01:59;1.11;83.00
9723;DHT22;4900;49.306;8.500;2023-02-13T07:05:02;1.17;82.94
9723;DHT22;4900;49.306;8.500;2023-02-13T07:08:05;1.28;83.08
9723;DHT22;4900;49.306;8.500;2023-02-13T07:11:16;1.34;82.90
9723;DHT22;4900;49.306;8.500;2023-02-13T07:14:19;1.40;82.82
9723;DHT22;4900;49.306;8.500;2023-02-13T07:17:22;1.45;82.94
9723;DHT22;4900;49.306;8.500;2023-02-13T07:20:25;1.55;82.95
9723;DHT22;4900;49.306;8.500;2023-02-13T07:23:28;1.59;82.83
9723;DHT22;4900;49.306;8.500;2023-02-13T07:26:31;1.66;82.57
9723;DHT22;4900;49.306;8.500;2023-02-13T07:29:34;1.70;82.66
9723;DHT22;4900;49.306;8.500;2023-02-13T07:32:38;1.79;82.67
9723;DHT22;4900;49.306;8.500;2023-02-13T07:35:48;1.86;82.77
9723;DHT22;4900;49.306;8.500;2023-02-13T07:38:52;1.94;82.81
9723;DHT22;4900;49.306;8.500;2023-02-13T07:41:55;2.00;83.03
9723;DHT22;4900;49.306;8.500;2023-02-13T07:44:58;2.07;83.07
9723;DHT22;4900;49.306;8.500;2023-02-13T07:48:01;2.14;83.19
9723;DHT22;4900;49.306;8.500;2023-02-13T07:51:04;2.22;83.24
9723;DHT22;4900;49.306;8.500;2023-02-13T07:54:08;2.27;83.29
9723;DHT22;4900;49.306;8.500;2023-02-13T07:57:14;2.37;83.42
9723;DHT22;4900;49.306;8.500;2023-02-13T08:00:18;2.44;83.47
9723;DHT22;4900;49.306;8.500;2023-02-13T08:03:21;2.52;83.46
9723;DHT22;4900;49.306;8.500;2023-02-13T08:06:24;2.56;83.57
9723;DHT22;4900;49.306;8.500;2023-02-13T08:09:28;2.60;83.72
9723;DHT22;4900;49.306;8.500;2023-02-13T08:12:50;2.70;83.82
9723;DHT22;4900;49.306;8.500;2023-02-13T08:15:54;2.77;83.80
9723;DHT22;4900;49.306;8.500;2023-02-13T08:18:57;2.80;83.90
9723;DHT22;4900;49.306;8.500;2023-02-13T08:21:59;2.88;83.96
9723;DHT22;4900;49.306;8.500;2023-02-13T08:25:04;2.97;83.64
9723;DHT22;4900;49.306;8.500;2023-02-13T08:28:07;3.01;83.31
9723;DHT22;4900;49.306;8.500;2023-02-13T08:31:11;3.11;83.14
9723;DHT22;4900;49.306;8.500;2023-02-13T08:34:14;3.14;82.90
9723;DHT22;4900;49.306;8.500;2023-02-13T08:37:17;3.22;82.92
9723;DHT22;4900;49.306;8.500;2023-02-13T08:40:20;3.25;82.93
9723;DHT22;4900;49.306;8.500;2023-02-13T08:43:24;3.35;82.81
9723;DHT22;4900;49.306;8.500;2023-02-13T08:46:27;3.38;82.73
9723;DHT22;4900;49.306;8.500;2023-02-13T08:49:29;3.49;82.56
9723;DHT22;4900;49.306;8.500;2023-02-13T08:52:33;3.58;82.29
9723;DHT22;4900;49.306;8.500;2023-02-13T08:55:35;3.66;82.18
9723;DHT22;4900;49.306;8.500;2023-02-13T08:58:38;3.73;82.05
9723;DHT22;4900;49.306;8.500;2023-02-13T09:01:41;3.80;81.84
9723;DHT22;4900;49.306;8.500;2023-02-13T09:04:44;3.90;82.12
9723;DHT22;4900;49.306;8.500;2023-02-13T09:07:46;4.01;82.09
9723;DHT22;4900;49.306;8.500;2023-02-13T09:10:58;4.22;81.80
9723;DHT22;4900;49.306;8.500;2023-02-13T09:14:01;4.50;81.92
9723;DHT22;4900;49.306;8.500;2023-02-13T09:17:04;4.89;81.16
9723;DHT22;4900;49.306;8.500;2023-02-13T09:20:09;5.32;80.78
9723;DHT22;4900;49.306;8.500;2023-02-13T09:23:14;5.67;80.47
9723;DHT22;4900;49.306;8.500;2023-02-13T09:26:18;6.03;79.92
9723;DHT22;4900;49.306;8.500;2023-02-13T09:29:21;6.45;78.74
9723;DHT22;4900;49.306;8.500;2023-02-13T09:32:25;6.82;77.92
9723;DHT22;4900;49.306;8.500;2023-02-13T09:35:28;7.10;77.44
9723;DHT22;4900;49.306;8.500;2023-02-13T09:38:31;7.41;76.52
9723;DHT22;4900;49.306;8.500;2023-02-13T09:41:36;7.82;75.70
9723;DHT22;4900;49.306;8.500;2023-02-13T09:44:42;8.23;74.70
9723;DHT22;4900;49.306;8.500;2023-02-13T09:47:47;8.41;74.40
9723;DHT22;4900;49.306;8.500;2023-02-13T09:50:50;8.76;73.82
9723;DHT22;4900;49.306;8.500;2023-02-13T09:53:56;9.18;72.93
9723;DHT22;4900;49.306;8.500;2023-02-13T09:57:07;9.45;72.36
9723;DHT22;4900;49.306;8.500;2023-02-13T10:00:32;9.72;71.25
9723;DHT22;4900;49.306;8.500;2023-02-13T10:03:44;9.91;71.33
9723;DHT22;4900;49.306;8.500;2023-02-13T10:14:03;10.52;69.49
9723;DHT22;4900;49.306;8.500;2023-02-13T10:17:16;10.63;69.47
9723;DHT22;4900;49.306;8.500;2023-02-13T10:20:31;10.72;69.38
9723;DHT22;4900;49.306;8.500;2023-02-13T10:23:40;11.03;68.63
9723;DHT22;4900;49.306;8.500;2023-02-13T10:26:46;11.39;68.02
9723;DHT22;4900;49.306;8.500;2023-02-13T10:30:48;11.49;66.53
9723;DHT22;4900;49.306;8.500;2023-02-13T10:33:52;11.67;66.67
9723;DHT22;4900;49.306;8.500;2023-02-13T10:37:00;11.86;66.89
9723;DHT22;4900;49.306;8.500;2023-02-13T10:40:09;11.99;66.30
9723;DHT22;4900;49.306;8.500;2023-02-13T10:43:16;12.11;66.27
9723;DHT22;4900;49.306;8.500;2023-02-13T11:02:52;12.84;63.46
9723;DHT22;4900;49.306;8.500;2023-02-13T11:05:58;13.04;63.23
9723;DHT22;4900;49.306;8.500;2023-02-13T11:09:05;13.26;63.21
9723;DHT22;4900;49.306;8.500;2023-02-13T11:12:33;13.44;61.32
9723;DHT22;4900;49.306;8.500;2023-02-13T11:15:36;13.46;62.38
9723;DHT22;4900;49.306;8.500;2023-02-13T11:18:40;13.69;61.84
9723;DHT22;4900;49.306;8.500;2023-02-13T11:21:47;13.80;61.00
9723;DHT22;4900;49.306;8.500;2023-02-13T11:25:00;14.05;60.34
9723;DHT22;4900;49.306;8.500;2023-02-13T11:28:10;14.32;59.75
9723;DHT22;4900;49.306;8.500;2023-02-13T11:31:38;14.43;59.06
9723;DHT22;4900;49.306;8.500;2023-02-13T11:34:41;14.55;59.55
9723;DHT22;4900;49.306;8.500;2023-02-13T11:37:44;14.64;58.59
9723;DHT22;4900;49.306;8.500;2023-02-13T11:41:21;14.83;58.22
9723;DHT22;4900;49.306;8.500;2023-02-13T11:44:27;15.05;58.42
9723;DHT22;4900;49.306;8.500;2023-02-13T11:47:40;15.29;57.25
9723;DHT22;4900;49.306;8.500;2023-02-13T11:50:51;15.40;56.44
9723;DHT22;4900;49.306;8.500;2023-02-13T11:53:56;15.50;56.29
9723;DHT22;4900;49.306;8.500;2023-02-13T11:57:21;15.71;55.36
9723;DHT22;4900;49.306;8.500;2023-02-13T12:00:33;15.91;54.08
9723;DHT22;4900;49.306;8.500;2023-02-13T12:03:40;16.05;54.86
9723;DHT22;4900;49.306;8.500;2023-02-13T12:07:09;16.12;53.15
9723;DHT22;4900;49.306;8.500;2023-02-13T12:13:30;16.29;53.52
9723;DHT22;4900;49.306;8.500;2023-02-13T12:16:40;16.41;53.09
9723;DHT22;4900;49.306;8.500;2023-02-13T12:19:47;16.54;52.31
9723;DHT22;4900;49.306;8.500;2023-02-13T12:23:16;16.75;52.42
9723;DHT22;4900;49.306;8.500;2023-02-13T12:26:33;16.91;52.76
9723;DHT22;4900;49.306;8.500;2023-02-13T12:39:34;17.34;50.22
9723;DHT22;4900;49.306;8.500;2023-02-13T12:42:47;17.37;49.85
9723;DHT22;4900;49.306;8.500;2023-02-13T12:53:28;17.70;49.93
9723;DHT22;4900;49.306;8.500;2023-02-13T13:03:32;17.98;48.35
9723;DHT22;4900;49.306;8.500;2023-02-13T13:10:18;18.27;48.28
9723;DHT22;4900;49.306;8.500;2023-02-13T13:17:00;18.54;48.75
9723;DHT22;4900;49.306;8.500;2023-02-13T13:23:16;18.75;47.81
9723;DHT22;4900;49.306;8.500;2023-02-13T13:26:30;19.00;48.95
9723;DHT22;4900;49.306;8.500;2023-02-13T13:29:43;19.14;48.04
9723;DHT22;4900;49.306;8.500;2023-02-13T13:32:54;19.20;47.55
9723;DHT22;4900;49.306;8.500;2023-02-13T13:36:25;19.40;47.22
9723;DHT22;4900;49.306;8.500;2023-02-13T13:39:47;19.61;48.39
9723;DHT22;4900;49.306;8.500;2023-02-13T13:43:05;19.57;47.11
9723;DHT22;4900;49.306;8.500;2023-02-13T13:49:57;19.76;47.58
9723;DHT22;4900;49.306;8.500;2023-02-13T13:53:10;19.95;46.86
9723;DHT22;4900;49.306;8.500;2023-02-13T13:56:14;19.89;46.60
9723;DHT22;4900;49.306;8.500;2023-02-13T14:02:51;20.05;46.04
9723;DHT22;4900;49.306;8.500;2023-02-13T14:06:11;20.08;46.87
9723;DHT22;4900;49.306;8.500;2023-02-13T14:18:45;20.26;46.53
9723;DHT22;4900;49.306;8.500;2023-02-13T14:21:49;20.33;46.18
9723;DHT22;4900;49.306;8.500;2023-02-13T14:24:57;20.43;46.44
9723;DHT22;4900;49.306;8.500;2023-02-13T14:28:03;20.51;46.10
9723;DHT22;4900;49.306;8.500;2023-02-13T14:31:29;20.61;46.37
9723;DHT22;4900;49.306;8.500;2023-02-13T14:34:36;20.65;45.33
9723;DHT22;4900;49.306;8.500;2023-02-13T14:37:53;20.71;45.94
9723;DHT22;4900;49.306;8.500;2023-02-13T14:40:56;20.58;45.18
9723;DHT22;4900;49.306;8.500;2023-02-13T14:43:59;20.58;45.77
9723;DHT22;4900;49.306;8.500;2023-02-13T14:47:05;20.64;45.45
9723;DHT22;4900;49.306;8.500;2023-02-13T14:50:18;20.62;45.44
9723;DHT22;4900;49.306;8.500;2023-02-13T14:53:44;20.62;45.68
9723;DHT22;4900;49.306;8.500;2023-02-13T14:56:50;20.61;45.03
9723;DHT22;4900;49.306;8.500;2023-02-13T15:00:00;20.61;45.16
9723;DHT22;4900;49.306;8.500;2023-02-13T15:06:43;20.43;45.39
9723;DHT22;4900;49.306;8.500;2023-02-13T15:09:54;20.40;44.70
9723;DHT22;4900;49.306;8.500;2023-02-13T15:13:00;20.31;45.41
9723;DHT22;4900;49.306;8.500;2023-02-13T15:16:06;20.26;45.30
9723;DHT22;4900;49.306;8.500;2023-02-13T15:19:15;20.21;45.13
9723;DHT22;4900;49.306;8.500;2023-02-13T15:22:30;20.16;44.73
9723;DHT22;4900;49.306;8.500;2023-02-13T15:25:38;20.14;45.12
9723;DHT22;4900;49.306;8.500;2023-02-13T15:28:41;20.02;45.39
9723;DHT22;4900;49.306;8.500;2023-02-13T15:31:59;20.05;45.23
9723;DHT22;4900;49.306;8.500;2023-02-13T15:38:35;19.99;45.16
9723;DHT22;4900;49.306;8.500;2023-02-13T15:41:49;19.89;45.08
9723;DHT22;4900;49.306;8.500;2023-02-13T15:44:55;19.72;44.75
9723;DHT22;4900;49.306;8.500;2023-02-13T15:47:59;19.53;44.44
9723;DHT22;4900;49.306;8.500;2023-02-13T15:51:02;19.26;44.76
9723;DHT22;4900;49.306;8.500;2023-02-13T15:54:21;18.96;45.47
9723;DHT22;4900;49.306;8.500;2023-02-13T15:57:25;18.69;45.28
9723;DHT22;4900;49.306;8.500;2023-02-13T16:00:35;18.34;45.68
9723;DHT22;4900;49.306;8.500;2023-02-13T16:03:40;18.02;45.31
9723;DHT22;4900;49.306;8.500;2023-02-13T16:06:45;17.47;45.76
9723;DHT22;4900;49.306;8.500;2023-02-13T16:09:48;16.87;46.46
9723;DHT22;4900;49.306;8.500;2023-02-13T16:12:52;16.15;47.85
9723;DHT22;4900;49.306;8.500;2023-02-13T16:15:55;15.51;48.76
9723;DHT22;4900;49.306;8.500;2023-02-13T16:18:58;14.91;50.58
9723;DHT22;4900;49.306;8.500;2023-02-13T16:22:15;14.39;51.19
9723;DHT22;4900;49.306;8.500;2023-02-13T16:25:37;13.78;52.53
9723;DHT22;4900;49.306;8.500;2023-02-13T16:28:44;13.38;53.53
9723;DHT22;4900;49.306;8.500;2023-02-13T16:31:49;12.96;53.72
9723;DHT22;4900;49.306;8.500;2023-02-13T16:34:53;12.55;55.15
9723;DHT22;4900;49.306;8.500;2023-02-13T16:37:59;12.24;55.99
9723;DHT22;4900;49.306;8.500;2023-02-13T16:47:28;11.10;58.53
9723;DHT22;4900;49.306;8.500;2023-02-13T16:50:30;10.76;59.45
9723;DHT22;4900;49.306;8.500;2023-02-13T16:53:33;10.45;60.32
9723;DHT22;4900;49.306;8.500;2023-02-13T16:56:39;10.11;61.43
9723;DHT22;4900;49.306;8.500;2023-02-13T17:02:49;9.49;63.16
9723;DHT22;4900;49.306;8.500;2023-02-13T17:05:52;9.27;63.49
9723;DHT22;4900;49.306;8.500;2023-02-13T17:08:58;9.01;63.81
9723;DHT22;4900;49.306;8.500;2023-02-13T17:12:00;8.86;64.07
9723;DHT22;4900;49.306;8.500;2023-02-13T17:15:04;8.65;64.70
9723;DHT22;4900;49.306;8.500;2023-02-13T17:18:09;8.48;65.05
9723;DHT22;4900;49.306;8.500;2023-02-13T17:21:11;8.26;65.25
9723;DHT22;4900;49.306;8.500;2023-02-13T17:24:16;8.07;65.85
9723;DHT22;4900;49.306;8.500;2023-02-13T17:27:20;7.89;66.39
9723;DHT22;4900;49.306;8.500;2023-02-13T17:30:29;7.75;66.62
9723;DHT22;4900;49.306;8.500;2023-02-13T17:33:32;7.59;66.99
9723;DHT22;4900;49.306;8.500;2023-02-13T17:36:36;7.44;67.40
9723;DHT22;4900;49.306;8.500;2023-02-13T17:39:39;7.35;67.92
9723;DHT22;4900;49.306;8.500;2023-02-13T17:42:43;7.24;68.36
9723;DHT22;4900;49.306;8.500;2023-02-13T17:45:47;7.12;69.04
9723;DHT22;4900;49.306;8.500;2023-02-13T17:48:51;7.03;69.60
9723;DHT22;4900;49.306;8.500;2023-02-13T17:51:54;6.93;69.98
9723;DHT22;4900;49.306;8.500;2023-02-13T17:54:57;6.87;70.68
9723;DHT22;4900;49.306;8.500;2023-02-13T17:58:00;6.79;70.83
9723;DHT22;4900;49.306;8.500;2023-02-13T18:01:03;6.74;71.11
9723;DHT22;4900;49.306;8.500;2023-02-13T18:04:07;6.68;71.76
9723;DHT22;4900;49.306;8.500;2023-02-13T18:07:12;6.61;71.40
9723;DHT22;4900;49.306;8.500;2023-02-13T18:10:21;6.53;71.62
9723;DHT22;4900;49.306;8.500;2023-02-13T18:13:25;6.45;71.41
9723;DHT22;4900;49.306;8.500;2023-02-13T18:16:28;6.34;71.42
9723;DHT22;4900;49.306;8.500;2023-02-13T18:19:31;6.26;71.49
9723;DHT22;4900;49.306;8.500;2023-02-13T18:22:33;6.20;71.52
9723;DHT22;4900;49.306;8.500;2023-02-13T18:25:36;6.10;71.74
9723;DHT22;4900;49.306;8.500;2023-02-13T18:28:39;6.02;71.91
9723;DHT22;4900;49.306;8.500;2023-02-13T18:31:42;5.98;72.04
9723;DHT22;4900;49.306;8.500;2023-02-13T18:34:45;5.94;72.29
9723;DHT22;4900;49.306;8.500;2023-02-13T18:37:48;5.85;72.48
9723;DHT22;4900;49.306;8.500;2023-02-13T18:40:51;5.79;72.77
9723;DHT22;4900;49.306;8.500;2023-02-13T18:43:55;5.78;73.02
9723;DHT22;4900;49.306;8.500;2023-02-13T18:47:00;5.74;73.22
9723;DHT22;4900;49.306;8.500;2023-02-13T18:50:03;5.70;73.43
9723;DHT22;4900;49.306;8.500;2023-02-13T18:53:07;5.67;73.47
9723;DHT22;4900;49.306;8.500;2023-02-13T18:56:11;5.63;73.59
9723;DHT22;4900;49.306;8.500;2023-02-13T18:59:15;5.59;73.81
9723;DHT22;4900;49.306;8.500;2023-02-13T19:02:18;5.54;74.08
9723;DHT22;4900;49.306;8.500;2023-02-13T19:05:20;5.56;74.76
9723;DHT22;4900;49.306;8.500;2023-02-13T19:08:24;5.54;74.84
9723;DHT22;4900;49.306;8.500;2023-02-13T19:11:27;5.57;75.03
9723;DHT22;4900;49.306;8.500;2023-02-13T19:14:30;5.57;75.25
9723;DHT22;4900;49.306;8.500;2023-02-13T19:17:34;5.57;75.11
9723;DHT22;4900;49.306;8.500;2023-02-13T19:20:37;5.54;75.08
9723;DHT22;4900;49.306;8.500;2023-02-13T19:23:43;5.51;75.03
9723;DHT22;4900;49.306;8.500;2023-02-13T19:26:46;5.46;74.86
9723;DHT22;4900;49.306;8.500;2023-02-13T19:29:49;5.42;75.02
9723;DHT22;4900;49.306;8.500;2023-02-13T19:32:53;5.39;75.08
9723;DHT22;4900;49.306;8.500;2023-02-13T19:36:02;5.34;75.12
9723;DHT22;4900;49.306;8.500;2023-02-13T19:39:05;5.33;75.13
9723;DHT22;4900;49.306;8.500;2023-02-13T19:42:10;5.25;75.06
9723;DHT22;4900;49.306;8.500;2023-02-13T19:45:13;5.20;75.17
9723;DHT22;4900;49.306;8.500;2023-02-13T19:48:16;5.16;75.38
9723;DHT22;4900;49.306;8.500;2023-02-13T19:51:27;5.12;75.39
9723;DHT22;4900;49.306;8.500;2023-02-13T19:54:30;5.11;75.53
9723;DHT22;4900;49.306;8.500;2023-02-13T19:57:33;5.08;75.56
9723;DHT22;4900;49.306;8.500;2023-02-13T20:00:37;5.06;75.76
9723;DHT22;4900;49.306;8.500;2023-02-13T20:03:40;4.99;75.67
9723;DHT22;4900;49.306;8.500;2023-02-13T20:06:44;4.99;75.90
9723;DHT22;4900;49.306;8.500;2023-02-13T20:09:47;4.97;75.82
9723;DHT22;4900;49.306;8.500;2023-02-13T20:12:50;4.89;76.11
9723;DHT22;4900;49.306;8.500;2023-02-13T20:15:56;4.92;76.23
9723;DHT22;4900;49.306;8.500;2023-02-13T20:19:01;4.91;76.20
9723;DHT22;4900;49.306;8.500;2023-02-13T20:22:07;4.87;76.04
9723;DHT22;4900;49.306;8.500;2023-02-13T20:25:10;4.85;76.03
9723;DHT22;4900;49.306;8.500;2023-02-13T20:28:13;4.78;75.99
9723;DHT22;4900;49.306;8.500;2023-02-13T20:31:19;4.74;76.09
9723;DHT22;4900;49.306;8.500;2023-02-13T20:34:23;4.71;76.22
9723;DHT22;4900;49.306;8.500;2023-02-13T20:37:26;4.69;76.20
9723;DHT22;4900;49.306;8.500;2023-02-13T20:40:29;4.69;76.26
9723;DHT22;4900;49.306;8.500;2023-02-13T20:43:32;4.64;76.30
9723;DHT22;4900;49.306;8.500;2023-02-13T20:46:37;4.60;76.32
9723;DHT22;4900;49.306;8.500;2023-02-13T20:49:40;4.59;76.52
9723;DHT22;4900;49.306;8.500;2023-02-13T20:52:43;4.56;76.48
9723;DHT22;4900;49.306;8.500;2023-02-13T20:55:46;4.53;76.59
9723;DHT22;4900;49.306;8.500;2023-02-13T20:58:50;4.53;76.78
9723;DHT22;4900;49.306;8.500;2023-02-13T21:01:53;4.50;76.84
9723;DHT22;4900;49.306;8.500;2023-02-13T21:04:56;4.49;76.71
9723;DHT22;4900;49.306;8.500;2023-02-13T21:07:59;4.48;76.83
9723;DHT22;4900;49.306;8.500;2023-02-13T21:11:04;4.45;76.87
9723;DHT22;4900;49.306;8.500;2023-02-13T21:14:11;4.43;77.03
9723;DHT22;4900;49.306;8.500;2023-02-13T21:17:15;4.42;76.84
9723;DHT22;4900;49.306;8.500;2023-02-13T21:20:17;4.36;76.89
9723;DHT22;4900;49.306;8.500;2023-02-13T21:23:21;4.33;76.81
9723;DHT22;4900;49.306;8.500;2023-02-13T21:26:24;4.29;76.82
9723;DHT22;4900;49.306;8.500;2023-02-13T21:29:27;4.26;76.93
9723;DHT22;4900;49.306;8.500;2023-02-13T21:32:29;4.25;77.13
9723;DHT22;4900;49.306;8.500;2023-02-13T21:35:32;4.25;77.14
9723;DHT22;4900;49.306;8.500;2023-02-13T21:38:37;4.19;77.14
9723;DHT22;4900;49.306;8.500;2023-02-13T21:41:42;4.15;77.27
9723;DHT22;4900;49.306;8.500;2023-02-13T21:44:45;4.12;77.28
9723;DHT22;4900;49.306;8.500;2023-02-13T21:47:48;4.12;77.44
9723;DHT22;4900;49.306;8.500;2023-02-13T21:50:51;4.11;77.49
9723;DHT22;4900;49.306;8.500;2023-02-13T21:53:54;4.05;77.38
9723;DHT22;4900;49.306;8.500;2023-02-13T21:56:57;4.01;77.66
9723;DHT22;4900;49.306;8.500;2023-02-13T22:00:00;4.01;77.71
9723;DHT22;4900;49.306;8.500;2023-02-13T22:03:05;3.98;78.01
9723;DHT22;4900;49.306;8.500;2023-02-13T22:06:12;3.95;78.13
9723;DHT22;4900;49.306;8.500;2023-02-13T22:09:17;3.94;78.22
9723;DHT22;4900;49.306;8.500;2023-02-13T22:12:20;3.94;78.23
9723;DHT22;4900;49.306;8.500;2023-02-13T22:15:23;3.94;78.32
9723;DHT22;4900;49.306;8.500;2023-02-13T22:18:29;3.90;78.41
9723;DHT22;4900;49.306;8.500;2023-02-13T22:21:33;3.90;78.39
9723;DHT22;4900;49.306;8.500;2023-02-13T22:24:36;3.86;78.43
9723;DHT22;4900;49.306;8.500;2023-02-13T22:27:46;3.87;78.56
9723;DHT22;4900;49.306;8.500;2023-02-13T22:30:49;3.86;78.65
9723;DHT22;4900;49.306;8.500;2023-02-13T22:33:53;3.86;78.57
9723;DHT22;4900;49.306;8.500;2023-02-13T22:36:57;3.83;78.47
9723;DHT22;4900;49.306;8.500;2023-02-13T22:40:00;3.81;78.44
9723;DHT22;4900;49.306;8.500;2023-02-13T22:43:04;3.80;78.46